createdAt,value
2023-04-22T00:01:44.789Z,3.50
2023-04-22T00:04:15.889Z,1.65
2023-04-22T00:06:50.324Z,1.98
2023-04-22T00:09:20.837Z,3.00
2023-04-22T00:11:51.313Z,4.07
2023-04-22T00:14:21.953Z,6.25
2023-04-22T00:16:52.402Z,3.10
2023-04-22T00:19:23.006Z,2.35
2023-04-22T00:21:55.192Z,1.65
2023-04-22T00:24:25.690Z,1.30
2023-04-22T00:26:56.240Z,2.72
2023-04-22T00:29:27.806Z,1.35
2023-04-22T00:31:58.254Z,2.83
2023-04-22T00:34:28.814Z,2.22
2023-04-22T00:37:02.005Z,3.78
2023-04-22T00:39:33.485Z,1.98
2023-04-22T00:42:04.656Z,2.17
2023-04-22T00:44:35.951Z,3.30
2023-04-22T00:47:07.345Z,1.52
2023-04-22T00:49:38.966Z,1.58
2023-04-22T00:52:11.356Z,2.25
2023-04-22T00:54:42.122Z,2.55
2023-04-22T00:57:13.020Z,4.65
2023-04-22T00:59:43.551Z,2.55
2023-04-22T01:02:15.349Z,3.13
2023-04-22T01:04:55.009Z,2.40
2023-04-22T01:07:27.187Z,1.10
2023-04-22T01:09:57.850Z,2.70
2023-04-22T01:12:28.387Z,2.25
2023-04-22T01:14:58.995Z,1.80
2023-04-22T01:17:29.591Z,2.03
2023-04-22T01:20:00.301Z,1.63
2023-04-22T01:22:38.669Z,0.95
2023-04-22T01:25:13.054Z,1.17
2023-04-22T01:27:45.056Z,1.35
2023-04-22T01:30:16.239Z,3.13
2023-04-22T01:32:47.197Z,2.35
2023-04-22T01:35:17.756Z,1.38
2023-04-22T01:37:48.423Z,3.85
2023-04-22T01:40:23.439Z,1.08
2023-04-22T01:42:54.092Z,1.67
2023-04-22T01:45:24.658Z,1.00
2023-04-22T01:47:55.392Z,2.47
2023-04-22T01:50:28.467Z,0.90
2023-04-22T01:52:59.903Z,1.08
2023-04-22T01:55:32.290Z,1.27
2023-04-22T01:58:02.808Z,1.15
2023-04-22T02:00:33.620Z,1.77
2023-04-22T02:03:07.577Z,1.20
2023-04-22T02:05:41.296Z,1.10
2023-04-22T02:08:11.830Z,2.38
2023-04-22T02:10:44.132Z,1.95
2023-04-22T02:13:14.682Z,2.78
2023-04-22T02:15:45.201Z,2.05
2023-04-22T02:18:15.852Z,2.22
2023-04-22T02:20:46.810Z,1.42
2023-04-22T02:23:17.366Z,1.83
2023-04-22T02:25:53.856Z,1.20
2023-04-22T02:28:24.413Z,1.95
2023-04-22T02:30:55.038Z,2.45
2023-04-22T02:33:25.701Z,1.63
2023-04-22T02:35:56.505Z,1.85
2023-04-22T02:38:27.849Z,1.60
2023-04-22T02:40:59.948Z,3.10
2023-04-22T02:43:30.450Z,1.63
2023-04-22T02:46:01.141Z,2.33
2023-04-22T02:48:31.781Z,1.23
2023-04-22T02:51:02.316Z,2.47
2023-04-22T02:53:32.858Z,1.20
2023-04-22T02:56:05.167Z,1.60
2023-04-22T02:58:35.730Z,3.00
2023-04-22T03:01:08.705Z,2.90
2023-04-22T03:03:39.462Z,2.10
2023-04-22T03:06:10.350Z,2.17
2023-04-22T03:08:40.953Z,1.70
2023-04-22T03:11:14.673Z,3.92
2023-04-22T03:13:45.220Z,3.30
2023-04-22T03:16:15.794Z,1.25
2023-04-22T03:18:46.258Z,2.63
2023-04-22T03:21:17.504Z,2.65
2023-04-22T03:23:48.142Z,2.72
2023-04-22T03:26:20.810Z,2.45
2023-04-22T03:28:54.355Z,4.28
2023-04-22T03:31:26.786Z,2.72
2023-04-22T03:33:59.063Z,2.97
2023-04-22T03:36:31.489Z,2.50
2023-04-22T03:39:02.029Z,1.85
2023-04-22T03:41:34.445Z,1.95
2023-04-22T03:44:05.603Z,3.58
2023-04-22T03:46:36.249Z,1.55
2023-04-22T03:49:07.795Z,4.18
2023-04-22T03:51:38.562Z,3.95
2023-04-22T03:54:09.209Z,2.35
2023-04-22T03:56:41.498Z,1.88
2023-04-22T03:59:12.100Z,1.80
2023-04-22T04:01:42.634Z,4.47
2023-04-22T04:04:13.382Z,2.35
2023-04-22T04:06:44.069Z,3.10
2023-04-22T04:09:14.539Z,2.67
2023-04-22T04:11:46.843Z,3.15
2023-04-22T04:14:17.466Z,2.30
2023-04-22T04:16:48.126Z,2.33
2023-04-22T04:19:18.682Z,2.55
2023-04-22T04:21:49.294Z,3.55
2023-04-22T04:24:19.871Z,2.33
2023-04-22T04:26:52.125Z,4.25
2023-04-22T04:29:22.873Z,6.82
2023-04-22T04:31:53.637Z,4.47
2023-04-22T04:34:24.254Z,3.00
2023-04-22T04:36:55.600Z,4.00
2023-04-22T04:39:27.435Z,3.63
2023-04-22T04:41:59.746Z,5.57
2023-04-22T04:44:32.663Z,1.98
2023-04-22T04:47:04.045Z,1.63
2023-04-22T04:49:41.070Z,2.08
2023-04-22T04:52:13.077Z,4.47
2023-04-22T04:54:43.987Z,3.95
2023-04-22T04:57:16.227Z,5.35
2023-04-22T04:59:46.650Z,2.15
2023-04-22T05:02:18.120Z,2.65
2023-04-22T05:04:49.114Z,2.63
2023-04-22T05:07:19.731Z,5.05
2023-04-22T05:09:50.321Z,3.92
2023-04-22T05:12:22.562Z,3.00
2023-04-22T05:14:53.211Z,3.00
2023-04-22T05:17:23.966Z,2.88
2023-04-22T05:19:54.482Z,2.83
2023-04-22T05:22:25.164Z,5.22
2023-04-22T05:24:55.836Z,1.92
2023-04-22T05:27:28.241Z,2.20
2023-04-22T05:29:58.795Z,2.80
2023-04-22T05:32:29.506Z,7.38
2023-04-22T05:35:00.282Z,3.28
2023-04-22T05:37:31.024Z,4.45
2023-04-22T05:40:01.676Z,4.15
2023-04-22T05:42:33.741Z,5.78
2023-04-22T05:45:04.436Z,5.45
2023-04-22T05:47:35.197Z,1.17
2023-04-22T05:50:06.129Z,2.88
2023-04-22T05:52:36.679Z,1.52
2023-04-22T05:55:10.637Z,3.55
2023-04-22T05:57:42.831Z,2.25
2023-04-22T06:00:14.416Z,3.72
2023-04-22T06:02:45.123Z,4.32
2023-04-22T06:05:15.980Z,2.65
2023-04-22T06:07:46.672Z,2.20
2023-04-22T06:10:17.355Z,3.63
2023-04-22T06:12:52.233Z,2.47
2023-04-22T06:15:23.674Z,2.60
2023-04-22T06:17:54.257Z,3.72
2023-04-22T06:20:24.903Z,4.47
2023-04-22T06:22:55.988Z,4.95
2023-04-22T06:25:26.593Z,2.80
2023-04-22T06:27:58.790Z,3.70
2023-04-22T06:30:30.005Z,3.22
2023-04-22T06:33:00.590Z,3.60
2023-04-22T06:35:31.199Z,5.93
2023-04-22T06:38:01.930Z,3.17
2023-04-22T06:40:32.592Z,2.85
2023-04-22T06:43:04.654Z,1.08
2023-04-22T06:45:35.137Z,2.88
2023-04-22T06:48:06.017Z,2.28
2023-04-22T06:50:36.705Z,4.22
2023-04-22T06:53:07.483Z,3.67
2023-04-22T06:55:38.116Z,3.50
2023-04-22T06:58:10.471Z,2.10
2023-04-22T07:00:41.370Z,2.05
2023-04-22T07:03:12.004Z,2.25
2023-04-22T07:05:42.856Z,2.50
2023-04-22T07:08:13.450Z,2.80
2023-04-22T07:10:44.241Z,2.03
2023-04-22T07:13:18.440Z,3.72
2023-04-22T07:15:49.240Z,2.35
2023-04-22T07:18:19.670Z,2.80
2023-04-22T07:20:50.105Z,4.65
2023-04-22T07:23:20.665Z,2.40
2023-04-22T07:25:51.257Z,4.13
2023-04-22T07:28:23.524Z,3.58
2023-04-22T07:30:54.130Z,3.33
2023-04-22T07:33:25.675Z,6.20
2023-04-22T07:35:56.388Z,3.50
2023-04-22T07:38:27.319Z,2.50
2023-04-22T07:40:57.874Z,2.70
2023-04-22T07:43:29.957Z,3.50
2023-04-22T07:46:00.836Z,3.15
2023-04-22T07:48:31.424Z,4.32
2023-04-22T07:51:01.838Z,2.20
2023-04-22T07:53:32.596Z,3.65
2023-04-22T07:56:04.741Z,2.95
2023-04-22T07:58:36.927Z,2.45
2023-04-22T08:01:08.001Z,2.67
2023-04-22T08:03:41.823Z,2.47
2023-04-22T08:06:12.517Z,3.65
2023-04-22T08:08:43.298Z,4.47
2023-04-22T08:11:14.017Z,1.52
2023-04-22T08:13:46.158Z,2.53
2023-04-22T08:16:16.994Z,3.35
2023-04-22T08:18:47.469Z,2.22
2023-04-22T08:21:17.923Z,5.20
2023-04-22T08:23:48.646Z,2.95
2023-04-22T08:26:19.118Z,3.70
2023-04-22T08:28:53.716Z,5.32
2023-04-22T08:31:24.315Z,3.75
2023-04-22T08:33:55.821Z,4.35
2023-04-22T08:36:28.635Z,2.90
2023-04-22T08:38:59.161Z,4.47
2023-04-22T08:41:36.409Z,1.85
2023-04-22T08:44:08.945Z,2.75
2023-04-22T08:46:41.006Z,2.25
2023-04-22T08:49:12.116Z,4.60
2023-04-22T08:51:43.233Z,3.63
2023-04-22T08:54:14.337Z,4.03
2023-04-22T08:56:47.438Z,3.97
2023-04-22T08:59:23.600Z,5.43
2023-04-22T09:01:56.084Z,4.25
2023-04-22T09:04:27.425Z,2.83
2023-04-22T09:06:58.206Z,6.88
2023-04-22T09:09:33.238Z,4.10
2023-04-22T09:12:04.246Z,4.10
2023-04-22T09:14:37.264Z,6.78
2023-04-22T09:17:07.948Z,4.97
2023-04-22T09:19:39.975Z,7.38
2023-04-22T09:22:17.370Z,4.50
2023-04-22T09:25:00.571Z,6.35
2023-04-22T09:27:36.849Z,4.00
2023-04-22T09:30:21.922Z,4.88
2023-04-22T09:32:59.548Z,4.70
2023-04-22T09:35:36.373Z,5.10
2023-04-22T09:38:08.939Z,5.03
2023-04-22T09:40:40.982Z,5.18
2023-04-22T09:43:12.479Z,3.75
2023-04-22T09:45:47.268Z,4.78
2023-04-22T09:48:19.029Z,6.35
2023-04-22T09:50:50.662Z,6.32
2023-04-22T09:53:25.921Z,6.88
2023-04-22T09:55:58.063Z,4.47
2023-04-22T09:58:28.882Z,6.78
2023-04-22T10:01:04.945Z,4.07
2023-04-22T10:03:36.084Z,7.38
2023-04-22T10:06:13.442Z,3.60
2023-04-22T10:08:47.039Z,4.72
2023-04-22T10:11:18.159Z,3.25
2023-04-22T10:13:48.779Z,2.53
2023-04-22T10:16:38.584Z,6.22
2023-04-22T10:21:44.381Z,6.85
2023-04-22T10:24:22.724Z,3.95
2023-04-22T10:26:59.642Z,6.63
2023-04-22T10:29:40.254Z,3.55
2023-04-22T10:32:32.282Z,4.07
2023-04-22T10:35:19.123Z,3.35
2023-04-22T10:37:52.761Z,2.33
2023-04-22T10:40:39.114Z,5.35
2023-04-22T10:43:10.913Z,3.58
2023-04-22T10:45:41.558Z,2.78
2023-04-22T10:48:13.762Z,2.60
2023-04-22T10:50:44.685Z,4.75
2023-04-22T10:53:39.265Z,4.22
2023-04-22T10:56:20.471Z,6.20
2023-04-22T10:58:52.703Z,3.63
2023-04-22T11:01:27.932Z,4.35
2023-04-22T11:04:26.537Z,7.32
2023-04-22T11:07:20.100Z,4.47
2023-04-22T11:09:55.031Z,4.93
2023-04-22T11:12:47.884Z,2.15
2023-04-22T11:15:29.180Z,3.65
2023-04-22T11:18:03.707Z,4.10
2023-04-22T11:20:38.278Z,2.95
2023-04-22T11:23:08.883Z,1.83
2023-04-22T11:25:42.378Z,4.20
2023-04-22T11:28:15.414Z,3.00
2023-04-22T11:30:48.135Z,3.08
2023-04-22T11:33:18.943Z,3.67
2023-04-22T11:35:53.950Z,1.77
2023-04-22T11:38:29.323Z,1.85
2023-04-22T11:41:04.231Z,1.42
2023-04-22T11:43:37.113Z,2.80
2023-04-22T11:46:08.837Z,2.35
2023-04-22T11:48:39.711Z,1.83
2023-04-22T11:51:15.767Z,2.85
2023-04-22T11:53:53.798Z,3.28
2023-04-22T11:56:25.187Z,1.77
2023-04-22T11:58:55.931Z,3.08
2023-04-22T12:01:26.873Z,5.20
2023-04-22T12:04:03.615Z,2.90
2023-04-22T12:06:36.197Z,2.05
2023-04-22T12:09:13.350Z,3.67
2023-04-22T12:11:44.596Z,1.45
2023-04-22T12:14:24.143Z,2.00
2023-04-22T12:16:55.949Z,1.38
2023-04-22T12:19:34.544Z,2.92
2023-04-22T12:22:09.659Z,1.92
2023-04-22T12:24:46.276Z,4.13
2023-04-22T12:27:19.581Z,2.75
2023-04-22T12:29:59.761Z,3.65
2023-04-22T12:32:30.628Z,2.30
2023-04-22T12:35:01.514Z,2.17
2023-04-22T12:38:01.990Z,2.35
2023-04-22T12:40:32.671Z,5.93
2023-04-22T12:43:06.942Z,3.90
2023-04-22T12:45:37.613Z,3.67
2023-04-22T12:48:15.535Z,6.20
2023-04-22T12:50:46.539Z,4.60
2023-04-22T12:53:19.237Z,3.78
2023-04-22T12:55:50.430Z,2.92
2023-04-22T12:58:21.218Z,4.07
2023-04-22T13:00:51.750Z,2.47
2023-04-22T13:03:22.506Z,3.97
2023-04-22T13:05:56.210Z,2.90
2023-04-22T13:08:28.724Z,3.10
2023-04-22T13:11:00.232Z,2.85
2023-04-22T13:13:30.806Z,2.40
2023-04-22T13:16:01.508Z,3.22
2023-04-22T13:18:32.104Z,3.65
2023-04-22T13:21:02.673Z,3.95
2023-04-22T13:23:38.640Z,2.65
2023-04-22T13:26:11.552Z,3.35
2023-04-22T13:28:42.135Z,2.60
2023-04-22T13:31:12.932Z,4.60
2023-04-22T13:33:44.987Z,13.93
2023-04-22T13:36:17.687Z,4.32
2023-04-22T13:38:50.043Z,2.78
2023-04-22T13:41:20.580Z,4.07
2023-04-22T13:43:55.452Z,3.08
2023-04-22T13:46:26.427Z,4.65
2023-04-22T13:48:57.723Z,3.83
2023-04-22T13:51:28.459Z,3.97
2023-04-22T13:54:00.785Z,3.92
2023-04-22T13:56:32.066Z,3.65
2023-04-22T13:59:07.044Z,4.80
2023-04-22T14:01:46.356Z,2.83
2023-04-22T14:04:16.942Z,4.25
2023-04-22T14:07:01.459Z,3.45
2023-04-22T14:09:35.649Z,5.00
2023-04-22T14:12:07.383Z,3.45
2023-04-22T14:14:51.504Z,4.50
2023-04-22T14:17:24.797Z,3.90
2023-04-22T14:19:55.227Z,3.00
2023-04-22T14:22:28.364Z,4.88
2023-04-22T14:25:00.559Z,3.78
2023-04-22T14:27:32.733Z,3.35
2023-04-22T14:30:07.164Z,3.92
2023-04-22T14:32:38.036Z,3.83
2023-04-22T14:35:09.178Z,3.92
2023-04-22T14:37:40.908Z,4.60
2023-04-22T14:40:16.778Z,6.50
2023-04-22T14:42:55.461Z,3.88
2023-04-22T14:45:27.300Z,3.75
2023-04-22T14:48:00.827Z,6.05
2023-04-22T14:50:37.689Z,4.03
2023-04-22T14:53:08.138Z,4.00
2023-04-22T14:55:40.458Z,4.22
2023-04-22T14:58:11.052Z,4.30
2023-04-22T15:00:44.712Z,4.55
2023-04-22T15:03:16.796Z,3.92
2023-04-22T15:05:50.081Z,5.63
2023-04-22T15:08:20.791Z,3.85
2023-04-22T15:10:52.931Z,4.40
2023-04-22T15:13:23.639Z,7.30
2023-04-22T15:15:56.106Z,4.70
2023-04-22T15:18:26.851Z,6.20
2023-04-22T15:21:00.400Z,4.28
2023-04-22T15:23:50.769Z,4.13
2023-04-22T15:26:31.627Z,4.82
2023-04-22T15:29:02.829Z,4.85
2023-04-22T15:31:37.121Z,7.03
2023-04-22T15:34:10.800Z,5.28
2023-04-22T15:36:45.986Z,4.03
2023-04-22T15:39:18.261Z,5.00
2023-04-22T15:41:53.213Z,4.28
2023-04-22T15:44:25.237Z,5.78
2023-04-22T15:46:55.952Z,4.15
2023-04-22T15:49:31.855Z,3.88
2023-04-22T15:52:02.765Z,5.15
2023-04-22T15:54:35.841Z,2.90
2023-04-22T15:57:08.025Z,4.35
2023-04-22T15:59:41.827Z,7.07
2023-04-22T16:02:12.745Z,4.35
2023-04-22T16:04:46.833Z,5.43
2023-04-22T16:07:17.276Z,3.95
2023-04-22T16:09:49.288Z,4.63
2023-04-22T16:12:21.309Z,4.85
2023-04-22T16:14:51.755Z,4.32
2023-04-22T16:17:22.467Z,5.78
2023-04-22T16:19:53.268Z,6.30
2023-04-22T16:22:27.584Z,3.38
2023-04-22T16:25:00.458Z,3.80
2023-04-22T16:27:35.734Z,4.95
2023-04-22T16:30:10.247Z,5.35
2023-04-22T16:32:40.853Z,4.82
2023-04-22T16:35:12.746Z,5.70
2023-04-22T16:37:43.206Z,4.43
2023-04-22T16:40:13.933Z,5.15
2023-04-22T16:42:49.216Z,6.13
2023-04-22T16:45:20.283Z,4.95
2023-04-22T16:47:50.681Z,11.70
2023-04-22T16:50:21.165Z,3.97
2023-04-22T16:52:54.366Z,3.90
2023-04-22T16:55:26.942Z,10.75
2023-04-22T16:58:04.608Z,21.55
2023-04-22T17:00:39.671Z,23.00
2023-04-22T17:03:14.424Z,11.15
2023-04-22T17:05:47.640Z,22.90
2023-04-22T17:08:18.651Z,15.35
2023-04-22T17:10:49.178Z,12.73
2023-04-22T17:13:24.342Z,20.67
2023-04-22T17:16:03.237Z,9.10
2023-04-22T17:18:50.458Z,11.68
2023-04-22T17:21:30.331Z,5.75
2023-04-22T17:26:35.766Z,4.93
2023-04-22T17:29:09.913Z,2.63
2023-04-22T17:31:40.446Z,2.80
2023-04-22T17:34:13.388Z,2.22
2023-04-22T17:36:45.865Z,8.35
2023-04-22T17:39:16.697Z,6.13
2023-04-22T17:41:47.647Z,5.82
2023-04-22T17:44:19.989Z,5.75
2023-04-22T17:46:50.624Z,4.22
2023-04-22T17:49:21.308Z,5.93
2023-04-22T17:51:56.825Z,4.18
2023-04-22T17:54:29.796Z,3.30
2023-04-22T17:57:02.751Z,3.67
2023-04-22T17:59:37.519Z,7.55
2023-04-22T18:02:08.106Z,3.38
2023-04-22T18:04:41.572Z,4.65
2023-04-22T18:07:13.759Z,5.85
2023-04-22T18:09:46.430Z,4.60
2023-04-22T18:12:21.221Z,5.30
2023-04-22T18:14:53.563Z,7.65
2023-04-22T18:17:25.836Z,7.38
2023-04-22T18:20:09.769Z,3.85
2023-04-22T18:22:44.921Z,5.85
2023-04-22T18:25:18.361Z,4.10
2023-04-22T18:27:55.725Z,3.78
2023-04-22T18:30:28.242Z,3.00
2023-04-22T18:33:02.290Z,4.03
2023-04-22T18:35:36.226Z,3.60
2023-04-22T18:38:06.726Z,4.28
2023-04-22T18:40:37.600Z,2.95
2023-04-22T18:43:08.168Z,2.72
2023-04-22T18:45:42.502Z,3.30
2023-04-22T18:48:15.422Z,2.47
2023-04-22T18:50:48.535Z,2.65
2023-04-22T18:53:21.494Z,4.90
2023-04-22T18:55:54.816Z,3.28
2023-04-22T18:58:25.319Z,2.85
2023-04-22T19:00:57.481Z,3.92
2023-04-22T19:03:28.253Z,2.75
2023-04-22T19:06:04.047Z,2.10
2023-04-22T19:08:34.437Z,3.33
2023-04-22T19:11:04.978Z,4.00
2023-04-22T19:13:35.707Z,2.67
2023-04-22T19:16:15.334Z,1.60
2023-04-22T19:18:45.815Z,2.92
2023-04-22T19:21:16.268Z,3.97
2023-04-22T19:23:46.787Z,2.97
2023-04-22T19:26:17.324Z,3.88
2023-04-22T19:28:50.877Z,3.33
2023-04-22T19:31:32.682Z,3.05
2023-04-22T19:34:03.549Z,2.20
2023-04-22T19:36:34.972Z,4.65
2023-04-22T19:39:09.360Z,4.70
2023-04-22T19:41:45.847Z,4.25
2023-04-22T19:44:19.125Z,1.90
2023-04-22T19:46:56.536Z,2.88
2023-04-22T19:49:27.797Z,2.75
2023-04-22T19:52:02.228Z,3.78
2023-04-22T19:54:35.394Z,2.03
2023-04-22T19:57:08.558Z,1.50
2023-04-22T19:59:39.343Z,4.28
2023-04-22T20:02:12.273Z,1.98
2023-04-22T20:04:43.561Z,1.75
2023-04-22T20:07:14.959Z,1.80
2023-04-22T20:09:48.107Z,2.42
2023-04-22T20:12:18.716Z,2.97
2023-04-22T20:14:49.792Z,2.85
2023-04-22T20:17:22.544Z,4.65
2023-04-22T20:19:53.641Z,4.35
2023-04-22T20:22:30.181Z,1.92
2023-04-22T20:25:04.799Z,3.25
2023-04-22T20:27:37.799Z,2.28
2023-04-22T20:30:11.629Z,2.83
2023-04-22T20:32:44.166Z,3.72
2023-04-22T20:35:15.739Z,1.77
2023-04-22T20:37:47.019Z,3.15
2023-04-22T20:40:20.072Z,2.50
2023-04-22T20:42:50.928Z,1.80
2023-04-22T20:45:21.527Z,2.45
2023-04-22T20:47:54.216Z,2.85
2023-04-22T20:50:24.757Z,3.63
2023-04-22T20:52:55.314Z,3.00
2023-04-22T20:55:25.754Z,2.35
2023-04-22T20:57:56.276Z,2.08
2023-04-22T21:00:29.611Z,1.75
2023-04-22T21:03:02.761Z,3.67
2023-04-22T21:05:33.941Z,5.00
2023-04-22T21:08:04.879Z,1.40
2023-04-22T21:10:36.085Z,2.95
2023-04-22T21:13:07.361Z,2.67
2023-04-22T21:15:38.190Z,2.80
2023-04-22T21:18:11.410Z,1.52
2023-04-22T21:20:47.568Z,3.40
2023-04-22T21:23:18.415Z,3.38
2023-04-22T21:25:51.546Z,2.00
2023-04-22T21:28:23.642Z,1.73
2023-04-22T21:30:54.748Z,2.53
2023-04-22T21:33:27.418Z,1.73
2023-04-22T21:35:58.099Z,2.25
2023-04-22T21:38:28.703Z,2.90
2023-04-22T21:40:59.338Z,1.85
2023-04-22T21:43:30.365Z,1.20
2023-04-22T21:46:00.975Z,1.30
2023-04-22T21:48:33.159Z,1.35
2023-04-22T21:51:03.566Z,1.83
2023-04-22T21:53:36.588Z,1.50
2023-04-22T21:56:07.348Z,2.30
2023-04-22T21:58:37.874Z,1.33
2023-04-22T22:01:08.390Z,2.22
2023-04-22T22:03:40.707Z,1.42
2023-04-22T22:06:11.540Z,1.15
2023-04-22T22:08:42.377Z,1.65
2023-04-22T22:11:27.576Z,1.63
2023-04-22T22:14:01.246Z,3.70
2023-04-22T22:16:31.930Z,3.95
2023-04-22T22:19:05.238Z,1.50
2023-04-22T22:21:35.919Z,1.17
2023-04-22T22:24:06.569Z,2.15
2023-04-22T22:26:37.370Z,2.53
2023-04-22T22:29:16.051Z,1.65
2023-04-22T22:31:47.287Z,0.88
2023-04-22T22:34:19.400Z,1.55
2023-04-22T22:36:49.956Z,1.38
2023-04-22T22:39:20.512Z,1.10
2023-04-22T22:41:51.123Z,1.70
2023-04-22T22:44:22.070Z,2.78
2023-04-22T22:46:52.705Z,4.70
2023-04-22T22:49:25.298Z,0.98
2023-04-22T22:51:56.057Z,2.08
2023-04-22T22:54:28.763Z,0.80
2023-04-22T22:56:59.413Z,1.10
2023-04-22T22:59:29.977Z,1.30
2023-04-22T23:02:00.982Z,1.40
2023-04-22T23:04:33.349Z,5.22
2023-04-22T23:07:03.909Z,3.55
2023-04-22T23:09:34.505Z,1.33
2023-04-22T23:12:07.912Z,1.40
2023-04-22T23:14:38.706Z,0.88
2023-04-22T23:17:09.997Z,1.05
2023-04-22T23:19:43.721Z,1.52
2023-04-22T23:22:14.537Z,2.80
2023-04-22T23:24:45.723Z,0.88
2023-04-22T23:27:17.488Z,0.80
2023-04-22T23:29:48.661Z,1.15
2023-04-22T23:32:22.122Z,1.20
2023-04-22T23:34:57.085Z,0.75
2023-04-22T23:37:30.507Z,0.80
2023-04-22T23:40:01.049Z,0.80
2023-04-22T23:42:31.497Z,0.70
2023-04-22T23:45:02.091Z,0.70
2023-04-22T23:47:42.234Z,1.98
2023-04-22T23:50:16.821Z,1.15
2023-04-22T23:52:47.601Z,1.13
2023-04-22T23:55:18.820Z,1.77
2023-04-22T23:57:50.039Z,0.70
